createdAt,value
2022-12-18T00:01:34.728Z,23.65
2022-12-18T00:04:05.011Z,20.33
2022-12-18T00:06:33.655Z,21.63
2022-12-18T00:09:03.675Z,21.00
2022-12-18T00:11:32.048Z,18.60
2022-12-18T00:14:00.805Z,23.85
2022-12-18T00:16:31.020Z,21.55
2022-12-18T00:18:58.821Z,21.50
2022-12-18T00:21:27.105Z,20.70
2022-12-18T00:23:54.614Z,21.75
2022-12-18T00:26:25.172Z,20.08
2022-12-18T00:28:53.570Z,18.85
2022-12-18T00:31:24.107Z,19.73
2022-12-18T00:33:55.155Z,20.83
2022-12-18T00:36:26.318Z,22.38
2022-12-18T00:38:55.640Z,19.85
2022-12-18T00:41:42.268Z,18.48
2022-12-18T00:44:12.724Z,19.25
2022-12-18T00:46:40.168Z,22.73
2022-12-18T00:49:08.460Z,20.52
2022-12-18T00:51:36.247Z,18.60
2022-12-18T00:54:03.887Z,19.27
2022-12-18T00:56:31.719Z,18.80
2022-12-18T00:58:59.227Z,20.23
2022-12-18T01:01:26.632Z,18.73
2022-12-18T01:03:54.344Z,19.33
2022-12-18T01:06:21.653Z,19.73
2022-12-18T01:08:49.308Z,20.17
2022-12-18T01:11:19.010Z,19.45
2022-12-18T01:13:46.620Z,18.13
2022-12-18T01:16:15.819Z,18.50
2022-12-18T01:18:43.823Z,19.17
2022-12-18T01:21:16.070Z,17.65
2022-12-18T01:23:45.022Z,20.80
2022-12-18T01:26:16.121Z,17.92
2022-12-18T01:28:45.069Z,18.85
2022-12-18T01:31:21.486Z,19.58
2022-12-18T01:33:49.611Z,18.70
2022-12-18T01:36:28.600Z,18.10
2022-12-18T01:38:56.709Z,18.83
2022-12-18T01:41:26.988Z,20.15
2022-12-18T01:43:58.185Z,18.13
2022-12-18T01:46:27.357Z,20.58
2022-12-18T01:49:02.203Z,19.33
2022-12-18T01:51:31.290Z,16.83
2022-12-18T01:54:00.244Z,18.60
2022-12-18T01:56:27.703Z,18.50
2022-12-18T01:59:00.828Z,18.52
2022-12-18T02:01:31.049Z,16.52
2022-12-18T02:04:23.571Z,18.92
2022-12-18T02:07:14.259Z,17.52
2022-12-18T02:10:04.753Z,15.85
2022-12-18T02:12:49.310Z,16.88
2022-12-18T02:15:27.860Z,18.08
2022-12-18T02:18:04.307Z,17.48
2022-12-18T02:20:38.021Z,16.52
2022-12-18T02:23:31.219Z,20.15
2022-12-18T02:26:28.321Z,18.25
2022-12-18T02:29:00.805Z,18.55
2022-12-18T02:31:35.484Z,17.55
2022-12-18T02:34:07.617Z,17.25
2022-12-18T02:36:39.019Z,18.58
2022-12-18T02:39:10.000Z,17.25
2022-12-18T02:41:38.739Z,18.80
2022-12-18T02:44:11.907Z,19.15
2022-12-18T02:46:43.485Z,16.90
2022-12-18T02:49:42.837Z,18.13
2022-12-18T02:52:31.784Z,17.73
2022-12-18T02:55:09.768Z,17.05
2022-12-18T02:58:14.264Z,17.58
2022-12-18T03:01:03.917Z,17.38
2022-12-18T03:03:50.016Z,16.30
2022-12-18T03:06:26.239Z,18.00
2022-12-18T03:09:15.763Z,18.20
2022-12-18T03:12:09.688Z,15.40
2022-12-18T03:14:39.306Z,15.85
2022-12-18T03:17:14.513Z,18.35
2022-12-18T03:22:10.996Z,17.73
2022-12-18T03:24:40.505Z,19.80
2022-12-18T03:27:13.357Z,17.73
2022-12-18T03:29:49.101Z,20.50
2022-12-18T03:32:26.563Z,18.13
2022-12-18T03:34:58.639Z,17.25
2022-12-18T03:37:25.936Z,18.73
2022-12-18T03:39:53.611Z,20.08
2022-12-18T03:43:00.874Z,17.33
2022-12-18T03:45:37.295Z,18.30
2022-12-18T03:48:13.801Z,18.27
2022-12-18T03:50:50.691Z,17.35
2022-12-18T03:53:53.647Z,15.02
2022-12-18T03:56:26.348Z,15.90
2022-12-18T03:58:56.165Z,18.52
2022-12-18T04:01:29.628Z,17.67
2022-12-18T04:04:00.243Z,15.20
2022-12-18T04:06:30.374Z,19.05
2022-12-18T04:08:59.287Z,21.80
2022-12-18T04:11:26.882Z,18.52
2022-12-18T04:13:58.968Z,16.02
2022-12-18T04:16:27.348Z,18.42
2022-12-18T04:18:55.143Z,16.23
2022-12-18T04:21:23.624Z,16.38
2022-12-18T04:23:50.885Z,17.02
2022-12-18T04:26:18.501Z,15.27
2022-12-18T04:28:45.820Z,16.65
2022-12-18T04:31:14.352Z,18.83
2022-12-18T04:33:41.953Z,17.33
2022-12-18T04:36:09.845Z,17.77
2022-12-18T04:38:37.121Z,15.75
2022-12-18T04:41:05.205Z,20.27
2022-12-18T04:43:33.836Z,18.23
2022-12-18T04:46:09.284Z,17.90
2022-12-18T04:48:37.460Z,19.67
2022-12-18T04:51:06.468Z,16.80
2022-12-18T04:53:33.935Z,18.17
2022-12-18T04:56:10.489Z,17.65
2022-12-18T04:58:38.792Z,16.92
2022-12-18T05:01:08.370Z,17.52
2022-12-18T05:03:36.502Z,17.05
2022-12-18T05:06:05.707Z,15.48
2022-12-18T05:08:33.304Z,16.90
2022-12-18T05:11:10.532Z,17.45
2022-12-18T05:13:39.263Z,18.27
2022-12-18T05:16:10.103Z,16.08
2022-12-18T05:18:37.447Z,17.17
2022-12-18T05:21:05.344Z,17.60
2022-12-18T05:23:32.587Z,18.92
2022-12-18T05:26:02.767Z,16.35
2022-12-18T05:28:31.984Z,16.13
2022-12-18T05:31:01.992Z,16.90
2022-12-18T05:33:35.390Z,17.92
2022-12-18T05:36:06.373Z,19.70
2022-12-18T05:38:35.814Z,17.17
2022-12-18T05:41:04.984Z,18.58
2022-12-18T05:43:32.364Z,17.40
2022-12-18T05:46:04.736Z,18.13
2022-12-18T05:48:32.009Z,18.08
2022-12-18T05:51:08.390Z,17.48
2022-12-18T05:53:37.521Z,20.48
2022-12-18T05:56:08.353Z,18.88
2022-12-18T05:58:36.019Z,20.08
2022-12-18T06:01:16.603Z,19.27
2022-12-18T06:03:45.080Z,17.35
2022-12-18T06:06:18.666Z,19.15
2022-12-18T06:08:46.715Z,18.05
2022-12-18T06:11:18.935Z,17.23
2022-12-18T06:13:47.372Z,17.00
2022-12-18T06:16:14.950Z,18.15
2022-12-18T06:18:42.432Z,18.05
2022-12-18T06:21:10.072Z,19.67
2022-12-18T06:23:37.695Z,17.65
2022-12-18T06:26:07.849Z,18.67
2022-12-18T06:28:35.341Z,24.10
2022-12-18T06:31:04.608Z,18.70
2022-12-18T06:33:32.848Z,23.05
2022-12-18T06:36:11.536Z,19.48
2022-12-18T06:38:43.234Z,20.17
2022-12-18T06:41:13.473Z,22.15
2022-12-18T06:43:41.326Z,23.80
2022-12-18T06:46:09.744Z,16.70
2022-12-18T06:48:37.041Z,20.15
2022-12-18T06:51:04.857Z,19.67
2022-12-18T06:53:33.096Z,23.33
2022-12-18T06:56:09.856Z,21.55
2022-12-18T06:58:39.480Z,22.75
2022-12-18T07:01:09.953Z,24.85
2022-12-18T07:03:38.800Z,28.90
2022-12-18T07:06:07.204Z,22.88
2022-12-18T07:08:34.534Z,20.70
2022-12-18T07:11:05.285Z,23.40
2022-12-18T07:13:32.802Z,30.52
2022-12-18T07:16:12.922Z,25.02
2022-12-18T07:18:43.644Z,25.00
2022-12-18T07:21:13.980Z,25.58
2022-12-18T07:23:41.660Z,23.88
2022-12-18T07:26:13.275Z,23.48
2022-12-18T07:28:42.052Z,28.15
2022-12-18T07:31:13.194Z,20.95
2022-12-18T07:33:40.796Z,20.83
2022-12-18T07:36:10.864Z,21.83
2022-12-18T07:38:38.553Z,22.30
2022-12-18T07:41:08.832Z,23.60
2022-12-18T07:43:37.338Z,28.38
2022-12-18T07:46:06.560Z,23.63
2022-12-18T07:48:33.930Z,27.13
2022-12-18T07:51:03.643Z,25.30
2022-12-18T07:53:31.571Z,26.23
2022-12-18T07:56:25.889Z,30.33
2022-12-18T07:58:48.566Z,32.55
2022-12-18T08:01:16.799Z,33.92
2022-12-18T08:03:44.576Z,33.22
2022-12-18T08:06:12.107Z,30.60
2022-12-18T08:08:41.112Z,31.77
2022-12-18T08:11:08.885Z,36.28
2022-12-18T08:13:36.354Z,38.58
2022-12-18T08:16:07.467Z,31.38
2022-12-18T08:18:37.084Z,34.65
2022-12-18T08:21:16.084Z,29.50
2022-12-18T08:23:44.127Z,36.05
2022-12-18T08:26:13.037Z,38.65
2022-12-18T08:28:41.008Z,26.15
2022-12-18T08:31:09.132Z,29.02
2022-12-18T08:33:38.924Z,34.45
2022-12-18T08:36:07.939Z,31.70
2022-12-18T08:38:35.265Z,30.58
2022-12-18T08:41:04.982Z,28.95
2022-12-18T08:43:52.384Z,31.67
2022-12-18T08:46:21.679Z,25.80
2022-12-18T08:48:52.186Z,34.20
2022-12-18T08:51:19.826Z,24.67
2022-12-18T08:53:47.945Z,28.27
2022-12-18T08:56:16.139Z,32.40
2022-12-18T08:58:43.749Z,24.17
2022-12-18T09:01:13.195Z,28.70
2022-12-18T09:03:41.547Z,27.55
2022-12-18T09:06:09.136Z,26.23
2022-12-18T09:08:37.949Z,28.42
2022-12-18T09:11:05.808Z,29.33
2022-12-18T09:13:33.344Z,28.77
2022-12-18T09:16:00.566Z,29.95
2022-12-18T09:18:28.140Z,24.60
2022-12-18T09:20:55.487Z,24.58
2022-12-18T09:23:23.576Z,25.67
2022-12-18T09:25:50.811Z,26.65
2022-12-18T09:28:20.081Z,26.73
2022-12-18T09:30:49.842Z,27.02
2022-12-18T09:33:18.067Z,28.63
2022-12-18T09:35:46.117Z,25.83
2022-12-18T09:38:16.803Z,27.52
2022-12-18T09:40:50.121Z,30.58
2022-12-18T09:43:28.111Z,28.67
2022-12-18T09:46:01.196Z,27.55
2022-12-18T09:48:36.276Z,27.35
2022-12-18T09:51:13.237Z,25.33
2022-12-18T09:53:45.347Z,26.75
2022-12-18T09:56:19.636Z,27.23
2022-12-18T09:58:56.210Z,27.55
2022-12-18T10:01:24.873Z,28.80
2022-12-18T10:03:55.848Z,26.42
2022-12-18T10:06:53.272Z,30.02
2022-12-18T10:09:20.863Z,26.58
2022-12-18T10:12:26.521Z,26.92
2022-12-18T10:15:02.285Z,27.23
2022-12-18T10:17:55.254Z,29.33
2022-12-18T10:20:52.170Z,23.95
2022-12-18T10:23:28.460Z,30.73
2022-12-18T10:26:04.556Z,27.55
2022-12-18T10:28:34.157Z,27.80
2022-12-18T10:31:01.980Z,26.58
2022-12-18T10:33:32.523Z,26.27
2022-12-18T10:36:01.139Z,29.38
2022-12-18T10:38:30.489Z,27.27
2022-12-18T10:41:27.627Z,27.45
2022-12-18T10:44:18.645Z,27.92
2022-12-18T10:46:49.059Z,25.33
2022-12-18T10:49:22.307Z,24.50
2022-12-18T10:51:50.375Z,25.55
2022-12-18T10:54:24.416Z,26.38
2022-12-18T10:56:52.003Z,25.15
2022-12-18T10:59:19.464Z,24.45
2022-12-18T11:01:59.914Z,25.17
2022-12-18T11:04:32.057Z,27.02
2022-12-18T11:07:08.120Z,24.17
2022-12-18T11:09:40.729Z,26.90
2022-12-18T11:12:11.389Z,25.90
2022-12-18T11:14:48.493Z,26.40
2022-12-18T11:17:36.711Z,25.55
2022-12-18T11:20:10.279Z,25.17
2022-12-18T11:22:39.195Z,25.92
2022-12-18T11:28:21.161Z,25.75
2022-12-18T11:30:48.551Z,25.00
2022-12-18T11:33:22.561Z,25.20
2022-12-18T11:36:06.210Z,24.77
2022-12-18T11:38:38.321Z,23.98
2022-12-18T11:41:24.398Z,25.27
2022-12-18T11:43:59.788Z,25.70
2022-12-18T11:46:37.146Z,26.48
2022-12-18T11:49:13.958Z,24.20
2022-12-18T11:51:52.879Z,25.23
2022-12-18T11:54:20.387Z,25.25
2022-12-18T11:56:52.429Z,25.25
2022-12-18T11:59:31.412Z,22.80
2022-12-18T12:02:25.115Z,26.33
2022-12-18T12:05:25.652Z,24.77
2022-12-18T12:07:53.416Z,23.80
2022-12-18T12:10:23.696Z,22.73
2022-12-18T12:13:21.548Z,23.02
2022-12-18T12:16:29.558Z,22.27
2022-12-18T12:19:02.452Z,23.05
2022-12-18T12:21:40.409Z,25.08
2022-12-18T12:24:45.367Z,23.20
2022-12-18T12:27:54.582Z,23.33
2022-12-18T12:30:31.642Z,26.38
2022-12-18T12:33:17.812Z,23.20
2022-12-18T12:35:47.985Z,24.15
2022-12-18T12:38:36.481Z,26.00
2022-12-18T12:41:32.715Z,24.50
2022-12-18T12:44:10.082Z,25.77
2022-12-18T12:46:42.585Z,26.35
2022-12-18T12:49:23.124Z,25.23
2022-12-18T12:52:15.471Z,22.38
2022-12-18T12:54:45.755Z,21.55
2022-12-18T12:57:26.230Z,24.40
2022-12-18T13:00:06.212Z,26.10
2022-12-18T13:02:52.153Z,25.02
2022-12-18T13:05:41.352Z,25.65
2022-12-18T13:08:11.498Z,22.67
2022-12-18T13:10:41.772Z,26.15
2022-12-18T13:13:10.996Z,22.30
2022-12-18T13:15:51.204Z,23.30
2022-12-18T13:18:20.750Z,21.70
2022-12-18T13:21:01.187Z,22.75
2022-12-18T13:23:37.770Z,22.25
2022-12-18T13:26:11.278Z,24.45
2022-12-18T13:28:47.713Z,21.65
2022-12-18T13:31:24.346Z,22.75
2022-12-18T13:36:39.593Z,24.15
2022-12-18T13:39:34.793Z,25.85
2022-12-18T13:42:06.924Z,22.20
2022-12-18T13:44:40.323Z,21.95
2022-12-18T13:47:38.400Z,21.20
2022-12-18T13:50:28.581Z,23.60
2022-12-18T13:53:00.268Z,27.52
2022-12-18T13:55:27.858Z,27.50
2022-12-18T13:58:05.955Z,24.90
2022-12-18T14:00:33.366Z,24.20
2022-12-18T14:03:01.222Z,22.27
2022-12-18T14:05:32.392Z,21.92
2022-12-18T14:08:06.933Z,25.05
2022-12-18T14:10:48.037Z,25.45
2022-12-18T14:13:41.934Z,24.20
2022-12-18T14:16:16.163Z,23.20
2022-12-18T14:19:01.956Z,22.77
2022-12-18T14:21:47.880Z,23.13
2022-12-18T14:24:19.703Z,22.27
2022-12-18T14:26:49.650Z,25.90
2022-12-18T14:29:29.806Z,23.73
2022-12-18T14:32:21.210Z,22.30
2022-12-18T14:34:51.455Z,24.27
2022-12-18T14:37:24.630Z,23.08
2022-12-18T14:40:04.413Z,26.40
2022-12-18T14:42:36.149Z,26.13
2022-12-18T14:45:42.273Z,25.88
2022-12-18T14:48:23.458Z,26.23
2022-12-18T14:51:03.597Z,27.08
2022-12-18T14:53:35.744Z,25.45
2022-12-18T14:56:13.236Z,25.13
2022-12-18T14:58:45.064Z,25.02
2022-12-18T15:01:23.895Z,27.35
2022-12-18T15:03:53.737Z,26.30
2022-12-18T15:06:33.562Z,27.20
2022-12-18T15:09:03.833Z,25.08
2022-12-18T15:11:47.177Z,28.92
2022-12-18T15:14:31.417Z,27.13
2022-12-18T15:17:00.909Z,29.75
2022-12-18T15:19:41.656Z,25.98
2022-12-18T15:22:30.553Z,27.45
2022-12-18T15:24:59.700Z,25.52
2022-12-18T15:27:36.781Z,25.80
2022-12-18T15:30:07.618Z,26.13
2022-12-18T15:32:37.559Z,26.35
2022-12-18T15:35:15.232Z,24.95
2022-12-18T15:37:43.725Z,27.05
2022-12-18T15:40:20.219Z,24.92
2022-12-18T15:43:07.827Z,27.50
2022-12-18T15:45:35.186Z,25.55
2022-12-18T15:48:19.069Z,24.48
2022-12-18T15:50:47.183Z,25.77
2022-12-18T15:53:16.184Z,26.65
2022-12-18T15:56:02.249Z,30.42
2022-12-18T15:58:31.117Z,30.48
2022-12-18T16:01:00.715Z,30.40
2022-12-18T16:03:28.451Z,29.67
2022-12-18T16:05:55.774Z,28.35
2022-12-18T16:08:24.399Z,34.50
2022-12-18T16:10:51.780Z,26.92
2022-12-18T16:13:21.243Z,32.28
2022-12-18T16:15:48.680Z,35.53
2022-12-18T16:18:16.413Z,30.33
2022-12-18T16:20:43.766Z,29.80
2022-12-18T16:23:11.319Z,30.42
2022-12-18T16:25:38.676Z,29.35
2022-12-18T16:28:06.445Z,30.10
2022-12-18T16:30:38.051Z,31.00
2022-12-18T16:33:07.554Z,29.33
2022-12-18T16:35:35.234Z,30.30
2022-12-18T16:38:02.773Z,31.60
2022-12-18T16:40:32.781Z,30.65
2022-12-18T16:43:00.318Z,30.38
2022-12-18T16:45:33.902Z,32.95
2022-12-18T16:48:01.664Z,31.58
2022-12-18T16:50:29.012Z,31.08
2022-12-18T16:52:56.607Z,29.33
2022-12-18T16:55:23.824Z,30.90
2022-12-18T16:57:51.339Z,36.80
2022-12-18T17:00:18.723Z,33.95
2022-12-18T17:02:46.906Z,33.53
2022-12-18T17:05:14.538Z,37.10
2022-12-18T17:07:42.130Z,35.08
2022-12-18T17:10:09.996Z,30.98
2022-12-18T17:12:37.641Z,33.90
2022-12-18T17:15:05.335Z,34.95
2022-12-18T17:17:33.541Z,36.85
2022-12-18T17:20:00.784Z,36.03
2022-12-18T17:22:28.413Z,37.35
2022-12-18T17:24:55.694Z,38.13
2022-12-18T17:27:23.369Z,35.63
2022-12-18T17:29:50.951Z,37.28
2022-12-18T17:32:18.555Z,40.50
2022-12-18T17:34:47.013Z,37.85
2022-12-18T17:37:15.674Z,40.53
2022-12-18T17:39:43.551Z,39.50
2022-12-18T17:42:15.484Z,40.55
2022-12-18T17:44:44.235Z,39.78
2022-12-18T17:47:13.492Z,39.25
2022-12-18T17:49:41.090Z,39.65
2022-12-18T17:52:08.824Z,41.38
2022-12-18T17:54:39.539Z,38.38
2022-12-18T17:57:06.856Z,38.97
2022-12-18T17:59:34.526Z,40.08
2022-12-18T18:02:02.190Z,37.78
2022-12-18T18:04:30.536Z,39.28
2022-12-18T18:06:57.857Z,42.47
2022-12-18T18:09:25.651Z,39.35
2022-12-18T18:12:11.875Z,40.15
2022-12-18T18:14:39.604Z,43.08
2022-12-18T18:17:07.124Z,43.20
2022-12-18T18:19:34.702Z,45.35
2022-12-18T18:22:03.108Z,45.38
2022-12-18T18:24:33.132Z,44.88
2022-12-18T18:27:00.487Z,47.88
2022-12-18T18:29:30.453Z,47.35
2022-12-18T18:31:58.845Z,43.30
2022-12-18T18:34:29.115Z,44.72
2022-12-18T18:36:56.679Z,46.00
2022-12-18T18:39:24.249Z,50.60
2022-12-18T18:41:51.719Z,48.30
2022-12-18T18:44:26.205Z,49.85
2022-12-18T18:46:58.323Z,47.22
2022-12-18T18:49:27.321Z,45.05
2022-12-18T18:51:56.148Z,45.95
2022-12-18T18:54:24.708Z,50.45
2022-12-18T18:59:39.815Z,50.85
2022-12-18T19:02:12.101Z,50.08
2022-12-18T19:04:44.971Z,47.67
2022-12-18T19:07:29.591Z,49.37
2022-12-18T19:10:04.180Z,48.50
2022-12-18T19:12:52.948Z,48.45
2022-12-18T19:15:20.603Z,54.67
2022-12-18T19:17:48.056Z,53.33
2022-12-18T19:20:15.943Z,53.65
2022-12-18T19:22:43.345Z,53.50
2022-12-18T19:25:14.144Z,54.65
2022-12-18T19:27:42.021Z,55.65
2022-12-18T19:30:10.414Z,50.75
2022-12-18T19:32:37.813Z,56.42
2022-12-18T19:35:05.863Z,54.85
2022-12-18T19:37:35.083Z,53.30
2022-12-18T19:40:09.121Z,53.13
2022-12-18T19:42:39.824Z,56.20
2022-12-18T19:45:08.133Z,54.15
2022-12-18T19:47:35.383Z,61.55
2022-12-18T19:50:03.121Z,55.30
2022-12-18T19:52:30.586Z,53.67
2022-12-18T19:54:58.287Z,57.28
2022-12-18T19:57:26.076Z,54.60
2022-12-18T19:59:53.615Z,56.65
2022-12-18T20:02:21.134Z,54.13
2022-12-18T20:04:49.927Z,54.38
2022-12-18T20:07:18.508Z,52.20
2022-12-18T20:09:46.068Z,51.25
2022-12-18T20:12:14.395Z,53.72
2022-12-18T20:14:42.203Z,50.92
2022-12-18T20:17:11.001Z,54.60
2022-12-18T20:19:39.136Z,55.60
2022-12-18T20:22:06.900Z,52.58
2022-12-18T20:24:34.498Z,51.53
2022-12-18T20:27:02.051Z,49.92
2022-12-18T20:29:29.649Z,51.78
2022-12-18T20:31:57.118Z,55.72
2022-12-18T20:34:24.773Z,53.58
2022-12-18T20:36:52.412Z,49.42
2022-12-18T20:39:21.209Z,47.03
2022-12-18T20:41:49.505Z,51.85
2022-12-18T20:44:23.040Z,50.22
2022-12-18T20:46:56.646Z,50.28
2022-12-18T20:49:26.436Z,50.97
2022-12-18T20:51:56.324Z,48.42
2022-12-18T20:54:26.793Z,52.35
2022-12-18T20:56:54.489Z,48.00
2022-12-18T20:59:23.249Z,49.03
2022-12-18T21:01:52.033Z,51.08
2022-12-18T21:04:20.401Z,51.95
2022-12-18T21:06:53.372Z,47.50
2022-12-18T21:09:25.545Z,51.50
2022-12-18T21:12:14.348Z,52.67
2022-12-18T21:14:44.274Z,55.78
2022-12-18T21:17:12.061Z,49.70
2022-12-18T21:19:40.446Z,51.97
2022-12-18T21:22:09.762Z,54.85
2022-12-18T21:24:37.816Z,53.35
2022-12-18T21:27:05.280Z,54.22
2022-12-18T21:29:33.320Z,53.60
2022-12-18T21:32:02.428Z,56.03
2022-12-18T21:34:31.468Z,57.22
2022-12-18T21:36:59.982Z,53.30
2022-12-18T21:39:29.285Z,57.25
2022-12-18T21:42:16.177Z,51.08
2022-12-18T21:44:46.751Z,60.47
2022-12-18T21:47:21.963Z,53.15
2022-12-18T21:49:52.706Z,55.70
2022-12-18T21:52:30.745Z,56.25
2022-12-18T21:55:09.157Z,55.22
2022-12-18T21:57:40.113Z,59.05
2022-12-18T22:00:18.465Z,56.05
2022-12-18T22:02:48.489Z,54.28
2022-12-18T22:05:36.019Z,58.17
2022-12-18T22:08:03.260Z,57.67
2022-12-18T22:10:31.135Z,56.03
2022-12-18T22:12:58.557Z,59.97
2022-12-18T22:15:26.129Z,55.58
2022-12-18T22:17:58.716Z,55.30
2022-12-18T22:20:29.759Z,59.97
2022-12-18T22:22:57.793Z,57.25
2022-12-18T22:25:25.596Z,59.35
2022-12-18T22:28:11.657Z,55.95
2022-12-18T22:30:39.174Z,56.67
2022-12-18T22:33:06.844Z,56.33
2022-12-18T22:35:34.849Z,56.85
2022-12-18T22:38:02.181Z,55.15
2022-12-18T22:40:30.125Z,53.25
2022-12-18T22:42:57.659Z,56.70
2022-12-18T22:45:26.363Z,54.10
2022-12-18T22:47:53.718Z,57.90
2022-12-18T22:50:21.530Z,56.42
2022-12-18T22:52:48.856Z,56.55
2022-12-18T22:55:16.389Z,51.53
2022-12-18T22:57:47.050Z,53.75
2022-12-18T23:00:23.826Z,55.35
2022-12-18T23:02:59.218Z,54.08
2022-12-18T23:05:30.533Z,54.50
2022-12-18T23:07:58.546Z,55.45
2022-12-18T23:10:27.221Z,58.00
2022-12-18T23:12:54.494Z,52.25
2022-12-18T23:15:27.929Z,54.53
2022-12-18T23:17:59.418Z,50.42
2022-12-18T23:20:27.788Z,50.47
2022-12-18T23:22:55.132Z,49.30
2022-12-18T23:25:23.537Z,53.72
2022-12-18T23:27:51.020Z,55.97
2022-12-18T23:30:18.823Z,53.03
2022-12-18T23:32:46.119Z,51.60
2022-12-18T23:35:15.602Z,52.20
2022-12-18T23:38:00.075Z,53.97
2022-12-18T23:40:29.671Z,50.80
2022-12-18T23:42:58.502Z,49.65
2022-12-18T23:45:26.063Z,50.78
2022-12-18T23:47:53.494Z,53.70
2022-12-18T23:50:24.045Z,52.47
2022-12-18T23:53:05.076Z,50.53
2022-12-18T23:55:38.601Z,53.22
2022-12-18T23:58:06.023Z,52.33
